createdAt,value
2019-04-14T00:02:09.622Z,4.67
2019-04-14T00:04:44.545Z,4.97
2019-04-14T00:07:14.479Z,4.70
2019-04-14T00:09:43.667Z,4.77
2019-04-14T00:12:12.801Z,4.30
2019-04-14T00:14:42.536Z,4.70
2019-04-14T00:17:11.564Z,5.23
2019-04-14T00:19:41.296Z,4.13
2019-04-14T00:22:11.583Z,4.43
2019-04-14T00:24:40.642Z,4.43
2019-04-14T00:27:10.664Z,4.97
2019-04-14T00:29:39.802Z,4.27
2019-04-14T00:32:09.575Z,5.20
2019-04-14T00:34:46.279Z,4.80
2019-04-14T00:37:40.180Z,5.03
2019-04-14T00:40:12.885Z,5.33
2019-04-14T00:42:58.187Z,4.60
2019-04-14T00:45:53.153Z,4.27
2019-04-14T00:48:22.958Z,4.40
2019-04-14T00:50:53.842Z,4.67
2019-04-14T00:53:23.131Z,4.53
2019-04-14T00:55:53.221Z,4.30
2019-04-14T00:58:23.525Z,5.27
2019-04-14T01:00:53.785Z,4.37
2019-04-14T01:03:22.987Z,4.70
2019-04-14T01:05:52.613Z,4.17
2019-04-14T01:08:22.709Z,5.10
2019-04-14T01:10:51.998Z,4.17
2019-04-14T01:13:22.114Z,4.70
2019-04-14T01:15:58.731Z,4.33
2019-04-14T01:18:23.205Z,4.67
2019-04-14T01:20:53.524Z,5.53
2019-04-14T01:23:23.877Z,4.37
2019-04-14T01:25:54.102Z,4.40
2019-04-14T01:28:24.304Z,4.63
2019-04-14T01:30:54.439Z,5.83
2019-04-14T01:33:23.402Z,4.70
2019-04-14T01:35:55.352Z,4.83
2019-04-14T01:38:25.437Z,5.70
2019-04-14T01:40:55.300Z,5.73
2019-04-14T01:43:25.569Z,4.60
2019-04-14T01:46:05.179Z,4.67
2019-04-14T01:48:25.750Z,5.67
2019-04-14T01:51:06.974Z,5.87
2019-04-14T01:53:44.561Z,4.50
2019-04-14T01:56:22.994Z,4.87
2019-04-14T01:58:55.698Z,4.63
2019-04-14T02:01:28.190Z,5.03
2019-04-14T02:03:58.401Z,5.40
2019-04-14T02:06:28.694Z,4.53
2019-04-14T02:08:58.945Z,5.80
2019-04-14T02:11:29.185Z,4.30
2019-04-14T02:13:59.368Z,5.27
2019-04-14T02:16:34.858Z,4.13
2019-04-14T02:19:00.219Z,5.00
2019-04-14T02:21:30.286Z,4.80
2019-04-14T02:24:00.475Z,4.50
2019-04-14T02:26:30.813Z,4.87
2019-04-14T02:29:01.306Z,4.23
2019-04-14T02:31:53.448Z,4.90
2019-04-14T02:34:37.678Z,5.80
2019-04-14T02:39:36.448Z,5.20
2019-04-14T02:42:07.189Z,5.37
2019-04-14T02:44:53.277Z,4.60
2019-04-14T02:47:12.813Z,5.20
2019-04-14T02:49:34.811Z,4.83
2019-04-14T02:52:04.353Z,5.80
2019-04-14T02:54:43.568Z,5.77
2019-04-14T02:57:12.460Z,5.77
2019-04-14T02:59:36.421Z,5.77
2019-04-14T03:04:40.651Z,6.03
2019-04-14T03:07:16.160Z,6.73
2019-04-14T03:12:11.285Z,5.33
2019-04-14T03:14:43.540Z,6.60
2019-04-14T03:20:24.402Z,5.33
2019-04-14T03:22:49.894Z,5.07
2019-04-14T03:25:22.684Z,5.53
2019-04-14T03:28:28.004Z,6.57
2019-04-14T03:34:11.195Z,4.93
2019-04-14T03:36:58.243Z,6.13
2019-04-14T03:38:49.754Z,5.27
2019-04-14T03:41:17.123Z,7.00
2019-04-14T03:43:36.793Z,7.33
2019-04-14T03:46:18.020Z,5.20
2019-04-14T03:49:00.511Z,5.73
2019-04-14T03:51:20.999Z,5.40
2019-04-14T03:53:42.831Z,5.97
2019-04-14T03:56:26.953Z,5.57
2019-04-14T03:58:55.991Z,5.17
2019-04-14T04:01:25.797Z,5.70
2019-04-14T04:03:54.846Z,6.20
2019-04-14T04:06:24.646Z,6.27
2019-04-14T04:08:53.764Z,5.50
2019-04-14T04:11:23.725Z,6.57
2019-04-14T04:13:54.117Z,5.77
2019-04-14T04:16:35.428Z,5.13
2019-04-14T04:19:15.534Z,6.70
2019-04-14T04:21:55.243Z,6.07
2019-04-14T04:24:43.316Z,4.87
2019-04-14T04:27:25.155Z,5.67
2019-04-14T04:30:22.968Z,4.90
2019-04-14T04:33:06.588Z,6.03
2019-04-14T04:35:43.624Z,6.00
2019-04-14T04:38:37.785Z,5.63
2019-04-14T04:41:07.937Z,4.73
2019-04-14T04:43:37.122Z,5.43
2019-04-14T04:46:06.905Z,6.63
2019-04-14T04:48:37.021Z,6.47
2019-04-14T04:51:07.116Z,5.97
2019-04-14T04:53:36.314Z,5.90
2019-04-14T04:56:05.741Z,5.93
2019-04-14T04:58:34.946Z,6.67
2019-04-14T05:01:04.026Z,6.67
2019-04-14T05:03:33.969Z,7.10
2019-04-14T05:06:46.507Z,6.47
2019-04-14T05:09:25.345Z,6.73
2019-04-14T05:12:13.082Z,6.57
2019-04-14T05:14:45.996Z,6.33
2019-04-14T05:17:16.984Z,6.53
2019-04-14T05:19:45.977Z,7.30
2019-04-14T05:22:17.500Z,7.30
2019-04-14T05:24:46.124Z,8.20
2019-04-14T05:27:16.627Z,6.87
2019-04-14T05:29:45.742Z,7.13
2019-04-14T05:32:15.196Z,6.57
2019-04-14T05:34:45.413Z,6.90
2019-04-14T05:37:14.517Z,4.43
2019-04-14T05:39:44.072Z,5.17
2019-04-14T05:42:19.209Z,5.43
2019-04-14T05:44:44.791Z,6.37
2019-04-14T05:47:13.911Z,6.13
2019-04-14T05:49:47.059Z,5.17
2019-04-14T05:52:14.125Z,6.33
2019-04-14T05:54:43.348Z,5.57
2019-04-14T05:57:13.379Z,6.07
2019-04-14T05:59:43.961Z,4.43
2019-04-14T06:02:13.712Z,6.00
2019-04-14T06:04:43.885Z,5.73
2019-04-14T06:07:13.052Z,6.53
2019-04-14T06:09:41.933Z,5.30
2019-04-14T06:12:10.907Z,6.43
2019-04-14T06:14:39.903Z,5.90
2019-04-14T06:17:09.010Z,6.13
2019-04-14T06:19:40.624Z,6.57
2019-04-14T06:22:08.821Z,6.20
2019-04-14T06:24:39.778Z,5.80
2019-04-14T06:27:08.707Z,5.70
2019-04-14T06:29:37.627Z,6.43
2019-04-14T06:32:25.763Z,6.17
2019-04-14T06:35:31.963Z,5.63
2019-04-14T06:38:06.308Z,5.93
2019-04-14T06:40:48.226Z,5.20
2019-04-14T06:43:17.218Z,6.93
2019-04-14T06:45:46.197Z,6.07
2019-04-14T06:48:15.145Z,5.53
2019-04-14T06:50:46.335Z,6.13
2019-04-14T06:53:14.690Z,5.93
2019-04-14T06:55:43.662Z,5.77
2019-04-14T06:58:12.666Z,6.30
2019-04-14T07:00:41.630Z,5.23
2019-04-14T07:03:11.882Z,6.37
2019-04-14T07:05:40.906Z,5.60
2019-04-14T07:08:09.876Z,7.07
2019-04-14T07:10:38.891Z,6.27
2019-04-14T07:13:08.456Z,5.27
2019-04-14T07:15:37.801Z,6.27
2019-04-14T07:18:06.758Z,6.27
2019-04-14T07:20:35.760Z,5.90
2019-04-14T07:23:04.885Z,5.83
2019-04-14T07:25:34.118Z,6.47
2019-04-14T07:28:03.146Z,7.07
2019-04-14T07:30:42.546Z,6.90
2019-04-14T07:33:19.128Z,6.30
2019-04-14T07:36:11.737Z,5.77
2019-04-14T07:38:50.922Z,5.43
2019-04-14T07:41:33.966Z,5.73
2019-04-14T07:44:29.842Z,6.40
2019-04-14T07:47:03.647Z,6.57
2019-04-14T07:49:43.958Z,6.23
2019-04-14T07:52:41.148Z,6.97
2019-04-14T07:55:25.918Z,6.10
2019-04-14T07:58:13.878Z,5.80
2019-04-14T08:00:46.137Z,5.57
2019-04-14T08:03:28.181Z,5.83
2019-04-14T08:05:57.090Z,5.90
2019-04-14T08:08:26.234Z,6.23
2019-04-14T08:10:55.359Z,5.50
2019-04-14T08:13:24.410Z,6.83
2019-04-14T08:15:53.308Z,6.03
2019-04-14T08:18:22.273Z,6.17
2019-04-14T08:20:51.286Z,7.20
2019-04-14T08:23:20.339Z,6.47
2019-04-14T08:25:49.431Z,5.90
2019-04-14T08:28:21.176Z,5.83
2019-04-14T08:30:49.220Z,6.20
2019-04-14T08:33:18.224Z,5.77
2019-04-14T08:35:47.419Z,5.90
2019-04-14T08:38:16.503Z,5.63
2019-04-14T08:40:45.420Z,6.60
2019-04-14T08:43:26.699Z,6.83
2019-04-14T08:46:21.073Z,6.20
2019-04-14T08:48:57.363Z,6.70
2019-04-14T08:51:30.952Z,6.20
2019-04-14T08:54:21.328Z,6.60
2019-04-14T08:56:53.994Z,6.53
2019-04-14T08:59:42.530Z,6.30
2019-04-14T09:02:15.926Z,6.80
2019-04-14T09:04:58.767Z,6.50
2019-04-14T09:07:31.479Z,6.20
2019-04-14T09:10:28.727Z,5.77
2019-04-14T09:12:58.722Z,5.77
2019-04-14T09:15:27.890Z,6.67
2019-04-14T09:17:57.086Z,6.43
2019-04-14T09:20:26.497Z,6.23
2019-04-14T09:22:55.645Z,6.70
2019-04-14T09:25:24.639Z,6.13
2019-04-14T09:27:53.651Z,6.40
2019-04-14T09:30:22.891Z,6.50
2019-04-14T09:32:51.862Z,6.40
2019-04-14T09:35:20.910Z,6.33
2019-04-14T09:37:49.795Z,6.40
2019-04-14T09:40:18.887Z,6.13
2019-04-14T09:42:48.634Z,7.10
2019-04-14T09:45:18.082Z,6.90
2019-04-14T09:47:49.915Z,6.03
2019-04-14T09:50:21.491Z,5.83
2019-04-14T09:52:51.617Z,6.63
2019-04-14T09:55:23.511Z,7.10
2019-04-14T09:57:53.184Z,5.43
2019-04-14T10:00:23.171Z,7.40
2019-04-14T10:02:53.189Z,5.97
2019-04-14T10:05:24.113Z,6.10
2019-04-14T10:07:53.764Z,7.33
2019-04-14T10:10:24.026Z,6.03
2019-04-14T10:12:54.006Z,6.87
2019-04-14T10:15:24.256Z,6.57
2019-04-14T10:17:55.252Z,6.07
2019-04-14T10:20:25.194Z,6.87
2019-04-14T10:22:55.013Z,6.53
2019-04-14T10:25:25.136Z,7.27
2019-04-14T10:27:55.360Z,6.90
2019-04-14T10:30:24.843Z,5.80
2019-04-14T10:32:55.092Z,6.20
2019-04-14T10:35:24.557Z,5.77
2019-04-14T10:37:53.502Z,6.10
2019-04-14T10:40:22.550Z,6.93
2019-04-14T10:42:51.616Z,6.33
2019-04-14T10:45:20.501Z,6.80
2019-04-14T10:47:49.418Z,7.07
2019-04-14T10:50:30.169Z,6.33
2019-04-14T10:52:49.147Z,6.80
2019-04-14T10:55:18.171Z,6.37
2019-04-14T10:57:47.155Z,6.23
2019-04-14T11:00:17.488Z,6.50
2019-04-14T11:02:46.543Z,7.23
2019-04-14T11:05:15.620Z,7.03
2019-04-14T11:07:44.765Z,6.53
2019-04-14T11:10:14.202Z,7.70
2019-04-14T11:12:43.220Z,7.73
2019-04-14T11:15:15.427Z,6.70
2019-04-14T11:17:43.834Z,7.07
2019-04-14T11:20:12.947Z,7.30
2019-04-14T11:22:41.973Z,6.33
2019-04-14T11:25:11.040Z,5.77
2019-04-14T11:27:40.043Z,7.43
2019-04-14T11:30:12.495Z,6.03
2019-04-14T11:32:59.442Z,6.73
2019-04-14T11:35:53.650Z,5.77
2019-04-14T11:38:29.134Z,6.47
2019-04-14T11:41:00.062Z,6.97
2019-04-14T11:43:29.102Z,6.50
2019-04-14T11:45:58.256Z,7.57
2019-04-14T11:48:27.485Z,6.30
2019-04-14T11:50:56.524Z,6.87
2019-04-14T11:53:31.250Z,6.17
2019-04-14T11:56:04.624Z,6.27
2019-04-14T11:58:37.881Z,6.10
2019-04-14T12:01:25.297Z,6.40
2019-04-14T12:04:14.189Z,5.97
2019-04-14T12:06:54.273Z,6.27
2019-04-14T12:09:27.607Z,5.87
2019-04-14T12:11:57.570Z,5.37
2019-04-14T12:14:27.937Z,5.27
2019-04-14T12:16:57.735Z,5.37
2019-04-14T12:19:27.843Z,4.77
2019-04-14T12:22:07.749Z,4.93
2019-04-14T12:24:29.743Z,4.90
2019-04-14T12:26:59.712Z,4.93
2019-04-14T12:29:30.455Z,4.77
2019-04-14T12:32:01.754Z,4.80
2019-04-14T12:34:31.506Z,5.23
2019-04-14T12:37:01.775Z,5.10
2019-04-14T12:39:31.585Z,5.77
2019-04-14T12:42:38.260Z,5.03
2019-04-14T12:45:26.624Z,4.83
2019-04-14T12:48:13.452Z,4.40
2019-04-14T12:50:47.119Z,4.00
2019-04-14T12:53:16.269Z,5.23
2019-04-14T12:55:45.260Z,4.33
2019-04-14T12:58:15.426Z,4.40
2019-04-14T13:00:51.077Z,4.67
2019-04-14T13:03:20.972Z,3.70
2019-04-14T13:05:49.922Z,4.80
2019-04-14T13:08:18.894Z,4.13
2019-04-14T13:10:47.969Z,4.70
2019-04-14T13:13:17.008Z,4.17
2019-04-14T13:15:46.467Z,5.00
2019-04-14T13:18:15.431Z,4.50
2019-04-14T13:20:44.338Z,4.57
2019-04-14T13:23:13.391Z,4.17
2019-04-14T13:25:42.440Z,5.10
2019-04-14T13:28:11.342Z,3.93
2019-04-14T13:30:42.653Z,4.53
2019-04-14T13:33:11.632Z,4.83
2019-04-14T13:35:40.646Z,5.03
2019-04-14T13:38:09.618Z,4.50
2019-04-14T13:40:38.554Z,4.60
2019-04-14T13:43:07.451Z,4.57
2019-04-14T13:45:36.494Z,4.73
2019-04-14T13:48:05.655Z,5.70
2019-04-14T13:50:35.098Z,4.10
2019-04-14T13:53:04.160Z,4.13
2019-04-14T13:55:33.162Z,4.93
2019-04-14T13:58:02.274Z,4.57
2019-04-14T14:00:31.344Z,4.30
2019-04-14T14:03:00.316Z,4.47
2019-04-14T14:05:29.314Z,4.80
2019-04-14T14:07:58.358Z,4.73
2019-04-14T14:10:27.854Z,4.03
2019-04-14T14:13:03.232Z,4.57
2019-04-14T14:15:50.192Z,4.03
2019-04-14T14:18:37.200Z,4.93
2019-04-14T14:21:18.198Z,4.40
2019-04-14T14:23:54.287Z,4.60
2019-04-14T14:26:24.579Z,4.77
2019-04-14T14:28:53.550Z,5.03
2019-04-14T14:31:23.165Z,4.60
2019-04-14T14:33:52.411Z,4.50
2019-04-14T14:36:21.363Z,4.80
2019-04-14T14:38:50.294Z,4.60
2019-04-14T14:41:19.436Z,4.43
2019-04-14T14:43:48.383Z,4.63
2019-04-14T14:46:45.442Z,5.33
2019-04-14T14:49:25.257Z,5.30
2019-04-14T14:52:04.510Z,5.90
2019-04-14T14:54:33.531Z,5.73
2019-04-14T14:57:02.409Z,5.30
2019-04-14T14:59:31.384Z,5.57
2019-04-14T15:02:00.426Z,6.10
2019-04-14T15:04:29.471Z,5.30
2019-04-14T15:06:58.361Z,4.50
2019-04-14T15:09:27.321Z,4.53
2019-04-14T15:11:56.364Z,5.20
2019-04-14T15:14:25.368Z,5.30
2019-04-14T15:16:54.630Z,5.93
2019-04-14T15:19:23.636Z,4.90
2019-04-14T15:21:52.771Z,5.00
2019-04-14T15:24:21.743Z,5.03
2019-04-14T15:26:50.841Z,4.30
2019-04-14T15:29:19.846Z,4.87
2019-04-14T15:31:48.746Z,4.33
2019-04-14T15:34:17.808Z,4.60
2019-04-14T15:36:46.754Z,4.60
2019-04-14T15:39:15.782Z,4.37
2019-04-14T15:41:44.786Z,4.47
2019-04-14T15:44:13.673Z,4.23
2019-04-14T15:46:42.660Z,4.17
2019-04-14T15:49:11.723Z,4.60
2019-04-14T15:51:40.785Z,4.47
2019-04-14T15:54:09.698Z,3.57
2019-04-14T15:56:56.388Z,3.80
2019-04-14T15:59:47.570Z,3.40
2019-04-14T16:02:30.852Z,3.67
2019-04-14T16:05:28.204Z,4.40
2019-04-14T16:08:01.714Z,3.93
2019-04-14T16:10:45.350Z,4.13
2019-04-14T16:13:28.890Z,4.53
2019-04-14T16:16:19.014Z,3.70
2019-04-14T16:19:13.154Z,4.67
2019-04-14T16:21:42.191Z,4.80
2019-04-14T16:24:11.126Z,4.67
2019-04-14T16:26:57.507Z,4.90
2019-04-14T16:29:46.874Z,4.70
2019-04-14T16:32:40.943Z,4.90
2019-04-14T16:35:14.362Z,5.30
2019-04-14T16:37:44.082Z,4.50
2019-04-14T16:40:13.059Z,4.97
2019-04-14T16:42:42.039Z,5.53
2019-04-14T16:45:11.455Z,5.13
2019-04-14T16:47:40.531Z,5.10
2019-04-14T16:50:09.597Z,5.07
2019-04-14T16:53:03.981Z,5.07
2019-04-14T16:55:47.365Z,5.33
2019-04-14T16:58:35.306Z,5.67
2019-04-14T17:01:10.303Z,5.23
2019-04-14T17:03:43.149Z,4.97
2019-04-14T17:06:12.163Z,5.13
2019-04-14T17:08:41.068Z,5.30
2019-04-14T17:11:10.114Z,5.40
2019-04-14T17:13:42.086Z,5.57
2019-04-14T17:16:30.159Z,6.27
2019-04-14T17:19:05.095Z,6.60
2019-04-14T17:21:59.233Z,6.47
2019-04-14T17:24:39.053Z,7.27
2019-04-14T17:27:36.274Z,6.70
2019-04-14T17:30:19.743Z,7.70
2019-04-14T17:33:07.646Z,6.93
2019-04-14T17:35:51.084Z,6.30
2019-04-14T17:38:38.344Z,6.10
2019-04-14T17:41:19.293Z,6.07
2019-04-14T17:43:56.062Z,6.23
2019-04-14T17:46:46.987Z,6.90
2019-04-14T17:49:27.401Z,6.77
2019-04-14T17:52:15.431Z,6.70
2019-04-14T17:54:55.257Z,6.60
2019-04-14T17:57:42.276Z,6.20
2019-04-14T18:00:21.495Z,6.13
2019-04-14T18:03:09.545Z,7.57
2019-04-14T18:05:53.167Z,6.57
2019-04-14T18:08:39.927Z,7.40
2019-04-14T18:11:23.741Z,7.00
2019-04-14T18:14:02.331Z,6.77
2019-04-14T18:16:35.462Z,8.37
2019-04-14T18:19:20.560Z,7.77
2019-04-14T18:21:49.714Z,9.50
2019-04-14T18:24:18.678Z,7.93
2019-04-14T18:26:47.859Z,7.50
2019-04-14T18:29:27.369Z,7.37
2019-04-14T18:32:13.698Z,7.67
2019-04-14T18:34:47.931Z,7.20
2019-04-14T18:37:22.764Z,7.90
2019-04-14T18:40:09.935Z,6.10
2019-04-14T18:42:57.974Z,8.97
2019-04-14T18:45:43.005Z,6.97
2019-04-14T18:48:43.575Z,8.87
2019-04-14T18:51:46.590Z,6.63
2019-04-14T18:54:32.966Z,8.40
2019-04-14T18:57:36.166Z,6.90
2019-04-14T19:00:24.713Z,6.70
2019-04-14T19:02:53.691Z,8.17
2019-04-14T19:05:22.655Z,7.63
2019-04-14T19:07:51.543Z,6.47
2019-04-14T19:10:20.507Z,6.37
2019-04-14T19:12:57.687Z,7.10
2019-04-14T19:15:49.414Z,7.53
2019-04-14T19:18:25.813Z,7.77
2019-04-14T19:20:58.056Z,7.70
2019-04-14T19:23:27.010Z,7.87
2019-04-14T19:25:56.095Z,9.53
2019-04-14T19:28:25.022Z,10.17
2019-04-14T19:30:53.887Z,8.40
2019-04-14T19:33:22.798Z,7.47
2019-04-14T19:35:51.754Z,8.23
2019-04-14T19:38:21.095Z,7.70
2019-04-14T19:40:50.064Z,7.50
2019-04-14T19:43:23.936Z,8.80
2019-04-14T19:45:49.719Z,7.87
2019-04-14T19:48:18.780Z,8.03
2019-04-14T19:50:47.798Z,7.60
2019-04-14T19:53:16.767Z,6.80
2019-04-14T19:55:45.868Z,7.30
2019-04-14T19:58:14.919Z,7.10
2019-04-14T20:00:43.791Z,6.60
2019-04-14T20:03:12.761Z,7.00
2019-04-14T20:05:41.786Z,7.53
2019-04-14T20:08:10.751Z,8.20
2019-04-14T20:10:39.717Z,7.93
2019-04-14T20:13:08.771Z,7.77
2019-04-14T20:15:48.811Z,7.63
2019-04-14T20:18:36.951Z,7.00
2019-04-14T20:21:24.988Z,6.83
2019-04-14T20:23:59.782Z,5.67
2019-04-14T20:26:51.219Z,5.90
2019-04-14T20:29:23.625Z,6.83
2019-04-14T20:32:02.406Z,5.80
2019-04-14T20:34:31.922Z,5.30
2019-04-14T20:37:00.816Z,5.47
2019-04-14T20:39:30.594Z,5.90
2019-04-14T20:42:07.517Z,6.43
2019-04-14T20:44:40.275Z,6.10
2019-04-14T20:47:10.786Z,6.00
2019-04-14T20:49:40.576Z,5.13
2019-04-14T20:52:11.208Z,5.93
2019-04-14T20:54:41.410Z,5.87
2019-04-14T20:57:10.403Z,5.47
2019-04-14T20:59:44.520Z,6.10
2019-04-14T21:02:47.559Z,5.73
2019-04-14T21:05:34.807Z,4.87
2019-04-14T21:08:32.404Z,4.63
2019-04-14T21:11:09.894Z,4.87
2019-04-14T21:13:51.737Z,5.90
2019-04-14T21:16:29.005Z,4.87
2019-04-14T21:19:06.612Z,4.77
2019-04-14T21:21:42.566Z,5.57
2019-04-14T21:24:30.578Z,4.90
2019-04-14T21:27:24.808Z,5.70
2019-04-14T21:30:15.622Z,5.50
2019-04-14T21:32:53.417Z,5.77
2019-04-14T21:35:32.054Z,5.23
2019-04-14T21:38:09.150Z,5.47
2019-04-14T21:40:45.374Z,5.57
2019-04-14T21:43:14.554Z,4.53
2019-04-14T21:45:43.518Z,5.60
2019-04-14T21:48:12.644Z,4.97
2019-04-14T21:50:41.766Z,6.77
2019-04-14T21:53:10.668Z,5.63
2019-04-14T21:55:39.639Z,4.87
2019-04-14T21:58:26.551Z,5.57
2019-04-14T22:01:41.152Z,5.10
2019-04-14T22:04:28.425Z,5.13
2019-04-14T22:06:59.725Z,4.57
2019-04-14T22:09:34.362Z,5.20
2019-04-14T22:12:07.674Z,4.93
2019-04-14T22:14:44.639Z,5.27
2019-04-14T22:17:13.635Z,5.53
2019-04-14T22:19:42.722Z,5.37
2019-04-14T22:22:16.039Z,5.13
2019-04-14T22:24:50.575Z,5.27
2019-04-14T22:27:23.483Z,5.30
2019-04-14T22:29:59.923Z,4.77
2019-04-14T22:32:31.540Z,4.87
2019-04-14T22:35:06.068Z,4.83
2019-04-14T22:37:42.906Z,5.03
2019-04-14T22:40:15.587Z,4.57
2019-04-14T22:42:53.048Z,5.53
2019-04-14T22:45:25.286Z,5.17
2019-04-14T22:47:58.212Z,5.10
2019-04-14T22:50:30.433Z,5.10
2019-04-14T22:53:04.100Z,4.87
2019-04-14T22:55:47.162Z,3.90
2019-04-14T22:58:19.550Z,4.63
2019-04-14T23:00:58.637Z,5.17
2019-04-14T23:03:53.943Z,4.83
2019-04-14T23:07:05.067Z,5.77
2019-04-14T23:09:51.510Z,4.63
2019-04-14T23:12:37.857Z,5.07
2019-04-14T23:15:48.147Z,4.80
2019-04-14T23:18:41.353Z,4.43
2019-04-14T23:21:19.334Z,4.80
2019-04-14T23:23:59.146Z,4.93
2019-04-14T23:26:33.609Z,4.80
2019-04-14T23:29:14.933Z,4.57
2019-04-14T23:31:46.884Z,4.23
2019-04-14T23:34:25.677Z,4.50
2019-04-14T23:36:59.824Z,4.83
2019-04-14T23:39:33.862Z,4.43
2019-04-14T23:42:07.430Z,4.83
2019-04-14T23:44:36.421Z,4.83
2019-04-14T23:47:05.419Z,4.63
2019-04-14T23:49:34.514Z,4.27
2019-04-14T23:52:04.042Z,4.43
2019-04-14T23:54:33.213Z,4.23
2019-04-14T23:57:06.093Z,4.13
2019-04-14T23:59:32.999Z,5.27
